Time;durP1;ratioP1;P1;durP2;ratioP2;P2;SDS_P1;SDS_P2;PMS_P1;PMS_P2;Temp;Humidity;BMP_temperature;BMP_pressure;BME280_temperature;BME280_humidity;BME280_pressure;Samples;Min_cycle;Max_cycle;Signal;HPM_P1;HPM_P2
2022/11/04 00:02:02;;;;;;;0.00;0.00;;;;;;;11.31;92.68;98896.44;5015179;28;20220;-75
2022/11/04 00:04:28;;;;;;;0.47;0.40;;;;;;;11.33;92.45;98904.28;5032278;28;20560;-76
2022/11/04 00:06:55;;;;;;;0.00;0.00;;;;;;;11.35;92.06;98884.78;5014912;28;20172;-74
2022/11/04 00:09:23;;;;;;;0.13;0.13;;;;;;;11.36;92.01;98898.09;5032282;28;20175;-78
2022/11/04 00:14:34;;;;;;;0.00;0.00;;;;;;;11.28;93.21;98902.63;5031209;28;20215;-75
2022/11/04 00:33:45;;;;;;;1.10;1.10;;;;;;;11.23;96.48;98908.31;5031897;28;20280;-75
2022/11/04 00:36:11;;;;;;;0.00;0.00;;;;;;;11.30;96.26;98905.78;5031982;28;20526;-76
2022/11/04 00:38:36;;;;;;;0.47;0.47;;;;;;;11.32;96.88;98908.16;5031971;28;20173;-75
2022/11/04 00:41:01;;;;;;;0.00;0.00;;;;;;;11.35;96.17;98915.66;5031785;28;20176;-75
2022/11/04 00:43:27;;;;;;;0.00;0.00;;;;;;;11.35;96.03;98912.13;5031537;28;20176;-78
2022/11/04 00:45:52;;;;;;;0.00;0.00;;;;;;;11.41;94.98;98905.22;5031614;28;20191;-74
2022/11/04 00:48:17;;;;;;;0.00;0.00;;;;;;;11.36;95.67;98906.28;5031602;28;20168;-76
2022/11/04 00:50:42;;;;;;;0.00;0.00;;;;;;;11.30;95.94;98910.47;5031665;28;20164;-75
2022/11/04 00:53:08;;;;;;;0.00;0.00;;;;;;;11.41;95.87;98905.22;5031399;28;20583;-74
2022/11/04 00:55:34;;;;;;;0.00;0.00;;;;;;;11.45;96.12;98909.66;5031566;28;20176;-75
2022/11/04 00:57:59;;;;;;;0.00;0.00;;;;;;;11.42;95.51;98906.81;5031500;28;20574;-75
2022/11/04 01:00:24;;;;;;;0.00;0.00;;;;;;;11.41;95.32;98900.53;5031315;28;20203;-77
2022/11/04 01:02:49;;;;;;;0.00;0.00;;;;;;;11.50;95.19;98911.31;5031547;28;20164;-79
2022/11/04 01:05:15;;;;;;;0.00;0.00;;;;;;;11.45;95.65;98912.38;5031387;28;20693;-79
2022/11/04 01:07:40;;;;;;;0.00;0.00;;;;;;;11.56;94.80;98920.81;5031726;28;20222;-79
2022/11/04 01:10:06;;;;;;;0.10;0.10;;;;;;;11.53;95.33;98914.13;5031291;28;20233;-78
2022/11/04 01:12:31;;;;;;;0.10;0.10;;;;;;;11.65;95.52;98910.50;5031121;28;20164;-79
2022/11/04 01:14:56;;;;;;;0.00;0.00;;;;;;;11.67;94.76;98912.88;5031059;28;20188;-78
2022/11/04 01:17:22;;;;;;;0.17;0.17;;;;;;;11.71;94.94;98914.53;5031206;28;20254;-77
2022/11/04 01:19:48;;;;;;;0.00;0.00;;;;;;;11.78;95.59;98917.44;5031107;28;20172;-78
2022/11/04 01:22:13;;;;;;;0.20;0.17;;;;;;;11.76;97.31;98914.28;5031105;28;20168;-76
2022/11/04 01:24:38;;;;;;;0.20;0.20;;;;;;;11.77;98.21;98917.78;5030859;28;20171;-77
2022/11/04 01:27:03;;;;;;;0.20;0.20;;;;;;;11.72;99.14;98932.56;5030793;28;20172;-75
2022/11/04 01:29:29;;;;;;;1.43;0.97;;;;;;;11.64;100.00;98933.53;5030767;28;20175;-77
2022/11/04 01:31:54;;;;;;;2.77;1.07;;;;;;;11.52;100.00;98945.34;5031007;28;20175;-77
2022/11/04 01:34:20;;;;;;;0.10;0.10;;;;;;;11.43;100.00;98952.16;5030664;28;20207;-76
2022/11/04 01:36:45;;;;;;;2.73;2.50;;;;;;;11.32;100.00;98951.91;5030972;28;20172;-77
2022/11/04 01:39:12;;;;;;;0.67;0.67;;;;;;;11.26;100.00;98956.03;5030846;28;20318;-77
2022/11/04 01:41:37;;;;;;;0.80;0.80;;;;;;;11.16;100.00;98960.09;5031065;28;20517;-76
2022/11/04 01:44:41;;;;;;;2.27;2.07;;;;;;;11.08;100.00;98963.78;5030217;28;20191;-77
2022/11/04 01:47:15;;;;;;;0.83;0.83;;;;;;;11.01;100.00;98966.34;5031170;28;20266;-76
2022/11/04 01:49:41;;;;;;;0.33;0.33;;;;;;;10.97;100.00;98962.69;5030648;28;20171;-77
2022/11/04 01:52:17;;;;;;;1.30;1.17;;;;;;;10.95;100.00;98965.00;5030812;28;20233;-78
2022/11/04 01:54:45;;;;;;;0.07;0.07;;;;;;;10.91;100.00;98961.38;5030484;28;20305;-78
2022/11/04 01:57:14;;;;;;;0.77;0.77;;;;;;;10.89;100.00;98959.00;5031030;28;20183;-76
2022/11/04 01:59:40;;;;;;;0.37;0.33;;;;;;;10.89;100.00;98952.75;5030666;28;20175;-76
2022/11/04 02:02:06;;;;;;;0.10;0.10;;;;;;;10.89;100.00;98952.75;5030616;28;20535;-78
2022/11/04 02:04:32;;;;;;;0.00;0.00;;;;;;;10.86;100.00;98946.06;5030498;28;20176;-76
2022/11/04 02:07:06;;;;;;;0.00;0.00;;;;;;;10.90;100.00;98946.94;5030741;28;20187;-77
2022/11/04 02:09:34;;;;;;;0.00;0.00;;;;;;;10.91;100.00;98942.25;5030489;28;20656;-79
2022/11/04 02:14:46;;;;;;;0.00;0.00;;;;;;;10.92;100.00;98943.84;5030386;28;20202;-77
2022/11/04 02:17:17;;;;;;;0.00;0.00;;;;;;;10.92;100.00;98938.38;5030777;28;20537;-76
2022/11/04 02:20:10;;;;;;;0.00;0.00;;;;;;;10.92;100.00;98941.13;5030396;28;20186;-77
2022/11/04 02:23:12;;;;;;;0.00;0.00;;;;;;;10.85;100.00;98932.72;5030384;28;20179;-77
2022/11/04 02:25:59;;;;;;;0.00;0.00;;;;;;;10.83;100.00;98930.34;5030362;28;20168;-76
2022/11/04 02:29:38;;;;;;;0.50;0.50;;;;;;;10.84;100.00;98934.66;5030576;28;20176;-76
2022/11/04 02:32:25;;;;;;;0.40;0.40;;;;;;;10.86;100.00;98928.88;4932308;28;20184;-77
2022/11/04 02:35:06;;;;;;;0.57;0.57;;;;;;;10.83;100.00;98932.28;4968892;28;20205;-78
2022/11/04 02:37:49;;;;;;;0.60;0.60;;;;;;;10.81;100.00;98927.16;5012460;28;20254;-78
2022/11/04 02:40:38;;;;;;;0.53;0.53;;;;;;;10.83;100.00;98932.28;5034246;28;20534;-77
2022/11/04 02:43:37;;;;;;;5.83;1.67;;;;;;;10.85;100.00;98927.25;5033945;28;20631;-77
2022/11/04 02:46:21;;;;;;;1.40;0.57;;;;;;;10.85;100.00;98908.13;5034016;28;20184;-76
2022/11/04 02:49:32;;;;;;;0.40;0.40;;;;;;;10.89;100.00;98928.94;5034002;28;20532;-78
2022/11/04 02:52:02;;;;;;;0.73;0.57;;;;;;;10.92;100.00;98930.19;5025460;28;20723;-77
2022/11/04 02:54:44;;;;;;;0.30;0.30;;;;;;;10.91;100.00;98926.66;5034062;28;20223;-77
2022/11/04 02:57:16;;;;;;;2.47;0.40;;;;;;;10.93;100.00;98935.28;5033917;28;20179;-76
2022/11/04 03:00:23;;;;;;;0.30;0.30;;;;;;;10.92;100.00;98938.38;5033853;28;20164;-76
2022/11/04 03:03:18;;;;;;;1.40;1.10;;;;;;;10.88;100.00;98943.75;5010488;28;20344;-77
2022/11/04 03:05:46;;;;;;;0.20;0.20;;;;;;;10.88;100.00;98957.41;5032008;28;20567;-76
2022/11/04 03:08:18;;;;;;;0.30;0.30;;;;;;;10.88;100.00;98957.41;5033586;28;20236;-77
2022/11/04 03:10:49;;;;;;;0.20;0.20;;;;;;;10.92;100.00;98962.97;5033478;28;20172;-76
2022/11/04 03:13:21;;;;;;;0.40;0.40;;;;;;;10.90;100.00;98982.44;5033418;28;20192;-77
2022/11/04 03:15:57;;;;;;;0.43;0.43;;;;;;;10.92;100.00;98991.09;5033809;28;20255;-77
2022/11/04 03:18:35;;;;;;;0.40;0.40;;;;;;;10.88;100.00;99003.88;5033627;28;20164;-77
2022/11/04 03:21:04;;;;;;;1.17;1.00;;;;;;;10.88;100.00;99017.53;5033307;28;20168;-77
2022/11/04 03:23:29;;;;;;;0.60;0.60;;;;;;;10.85;100.00;99029.16;5033173;28;20230;-77
2022/11/04 03:26:06;;;;;;;0.87;0.87;;;;;;;10.81;100.00;99046.56;5016089;28;20675;-77
2022/11/04 03:29:07;;;;;;;0.70;0.70;;;;;;;10.76;100.00;99050.34;5033303;28;20615;-77
2022/11/04 03:31:43;;;;;;;0.30;0.30;;;;;;;10.71;100.00;99050.59;5033186;28;20168;-78
2022/11/04 03:34:08;;;;;;;0.37;0.20;;;;;;;10.66;100.00;99059.81;5033146;28;20716;-79
2022/11/04 03:36:34;;;;;;;0.30;0.30;;;;;;;10.64;100.00;99061.31;5033329;28;20165;-77
2022/11/04 03:38:59;;;;;;;0.70;0.70;;;;;;;10.61;100.00;99075.66;5033110;28;20204;-78
2022/11/04 03:41:42;;;;;;;0.73;0.73;;;;;;;10.53;100.00;99080.09;5033055;28;20180;-79
2022/11/04 03:44:07;;;;;;;0.53;0.53;;;;;;;10.44;100.00;99071.25;5032698;28;20278;-78
2022/11/04 03:46:33;;;;;;;0.67;0.37;;;;;;;10.41;100.00;99077.38;5033280;28;20176;-78
2022/11/04 03:49:00;;;;;;;0.97;0.63;;;;;;;10.37;100.00;99080.03;5032771;28;20186;-78
2022/11/04 03:51:26;;;;;;;0.27;0.27;;;;;;;10.33;100.00;99078.31;5032897;28;20183;-78
2022/11/04 03:53:51;;;;;;;1.33;1.23;;;;;;;10.27;100.00;99091.44;5032532;28;20192;-78
2022/11/04 03:56:38;;;;;;;0.63;0.63;;;;;;;10.29;100.00;99086.41;5032743;28;20194;-78
2022/11/04 03:59:39;;;;;;;0.30;0.30;;;;;;;10.29;99.02;99082.88;5032691;28;20663;-78
2022/11/04 04:02:11;;;;;;;1.07;1.07;;;;;;;10.25;98.31;99096.41;5024399;28;20193;-77
2022/11/04 04:04:56;;;;;;;0.77;0.73;;;;;;;10.22;98.74;99101.75;5032570;28;20175;-79
2022/11/04 04:07:28;;;;;;;1.60;0.93;;;;;;;10.17;99.05;99100.03;5032480;28;20592;-78
2022/11/04 04:13:11;;;;;;;1.00;1.00;;;;;;;10.15;99.00;99107.78;5032374;28;20234;-79
2022/11/04 04:16:02;;;;;;;0.30;0.30;;;;;;;10.11;99.33;99113.09;5032474;28;20179;-80
2022/11/04 04:18:44;;;;;;;0.80;0.80;;;;;;;10.07;99.79;99117.66;5032471;28;20179;-79
2022/11/04 04:21:18;;;;;;;0.50;0.50;;;;;;;10.08;99.46;99113.78;5032532;28;20263;-79
2022/11/04 04:29:19;;;;;;;1.13;0.50;;;;;;;10.02;99.62;99126.06;5032187;28;20630;-79
2022/11/04 04:31:49;;;;;;;0.20;0.20;;;;;;;10.00;99.73;99128.34;5032258;28;20562;-80
2022/11/04 04:34:24;;;;;;;0.43;0.43;;;;;;;9.97;100.00;99133.66;5031936;28;20191;-79
2022/11/04 04:36:58;;;;;;;1.10;1.10;;;;;;;9.91;100.00;99135.81;5032085;28;20171;-78
2022/11/04 04:45:04;;;;;;;0.40;0.40;;;;;;;9.87;100.00;99140.38;5031658;28;20210;-79
2022/11/04 04:47:35;;;;;;;0.53;0.53;;;;;;;9.84;100.00;99141.84;5031834;28;20182;-79
2022/11/04 04:50:01;;;;;;;0.70;0.70;;;;;;;9.87;100.00;99153.22;5031804;28;20210;-78
2022/11/04 04:52:32;;;;;;;1.03;0.93;;;;;;;9.89;100.00;99145.47;5031645;28;20176;-79
2022/11/04 04:54:57;;;;;;;0.73;0.73;;;;;;;9.90;99.67;99147.06;5031530;28;20207;-78
2022/11/04 04:57:23;;;;;;;1.47;1.37;;;;;;;9.90;99.14;99156.06;5031710;28;20239;-78
2022/11/04 04:59:48;;;;;;;1.37;1.27;;;;;;;9.94;98.10;99154.25;5031510;28;20275;-79
2022/11/04 05:02:13;;;;;;;0.70;0.70;;;;;;;9.95;97.62;99146.84;5030863;28;20176;-80
2022/11/04 05:04:39;;;;;;;0.90;0.90;;;;;;;9.91;97.77;99157.66;5031436;28;20179;-79
2022/11/04 05:07:06;;;;;;;1.07;0.97;;;;;;;9.90;98.18;99156.06;5031675;28;20669;-80
2022/11/04 05:09:31;;;;;;;2.07;1.27;;;;;;;9.88;98.17;99158.31;5031422;28;20306;-79
2022/11/04 05:11:57;;;;;;;0.83;0.83;;;;;;;9.82;98.35;99152.28;5031483;28;20299;-79
2022/11/04 05:14:22;;;;;;;1.40;1.30;;;;;;;9.78;98.48;99150.56;5031195;28;20204;-79
2022/11/04 05:16:47;;;;;;;1.63;1.53;;;;;;;9.74;98.68;99166.03;5031273;28;20238;-78
2022/11/04 05:19:13;;;;;;;0.30;0.30;;;;;;;9.70;98.90;99167.84;5030914;28;20175;-77
2022/11/04 05:21:38;;;;;;;1.00;1.00;;;;;;;9.61;99.15;99167.91;5030888;28;20168;-79
2022/11/04 05:24:03;;;;;;;0.57;0.57;;;;;;;9.63;99.00;99167.56;5030893;28;20615;-80
2022/11/04 05:26:29;;;;;;;1.17;1.17;;;;;;;9.68;97.96;99183.72;5031065;28;20514;-79
2022/11/04 05:28:54;;;;;;;1.03;1.00;;;;;;;9.66;97.97;99197.69;5030860;28;20270;-74
2022/11/04 05:31:19;;;;;;;1.43;1.33;;;;;;;9.70;97.81;99200.56;5031506;28;20233;-73
2022/11/04 05:33:45;;;;;;;0.10;0.10;;;;;;;9.71;97.35;99208.41;5031537;28;20223;-74
2022/11/04 05:36:13;;;;;;;1.00;1.00;;;;;;;9.71;97.11;99196.72;5031055;28;20172;-74
2022/11/04 05:38:39;;;;;;;0.87;0.80;;;;;;;9.72;97.08;99184.66;5030753;28;20175;-74
2022/11/04 05:41:05;;;;;;;0.70;0.70;;;;;;;9.73;97.02;99178.06;5030922;28;20198;-76
2022/11/04 05:43:32;;;;;;;0.93;0.93;;;;;;;9.74;96.52;99205.00;5031001;28;20175;-74
2022/11/04 05:45:58;;;;;;;1.17;1.17;;;;;;;9.75;96.45;99219.44;5030774;28;20184;-73
2022/11/04 05:48:23;;;;;;;0.57;0.57;;;;;;;9.78;96.04;99224.22;5030822;28;20542;-74
2022/11/04 05:50:49;;;;;;;0.23;0.23;;;;;;;9.78;95.88;99222.28;5031051;28;20259;-73
2022/11/04 05:53:14;;;;;;;0.30;0.10;;;;;;;9.82;95.88;99233.31;5030507;28;20176;-75
2022/11/04 05:55:39;;;;;;;0.10;0.10;;;;;;;9.81;96.24;99231.72;5030705;28;20176;-74
2022/11/04 05:58:04;;;;;;;2.00;0.43;;;;;;;9.83;95.93;99227.53;5031072;28;20176;-74
2022/11/04 06:00:30;;;;;;;0.13;0.13;;;;;;;9.83;95.67;99238.44;5030895;28;20263;-77
2022/11/04 06:02:56;;;;;;;0.20;0.20;;;;;;;9.85;95.81;99246.31;5030379;28;20176;-73
2022/11/04 06:05:22;;;;;;;0.10;0.10;;;;;;;9.82;96.09;99250.47;5030724;28;20651;-74
2022/11/04 06:07:47;;;;;;;0.30;0.30;;;;;;;9.86;96.42;99258.81;5030538;28;20183;-74
2022/11/04 06:10:13;;;;;;;1.03;0.93;;;;;;;9.84;96.52;99261.88;5030598;28;20526;-75
2022/11/04 06:12:38;;;;;;;0.80;0.80;;;;;;;9.86;96.46;99264.25;5032051;28;20179;-73
2022/11/04 06:15:04;;;;;;;0.00;0.00;;;;;;;9.89;95.78;99262.78;5034714;28;20340;-75
2022/11/04 06:17:29;;;;;;;1.50;1.40;;;;;;;9.87;95.76;99271.31;5016658;28;20645;-74
2022/11/04 06:19:54;;;;;;;0.20;0.20;;;;;;;9.85;95.46;99262.66;5034243;28;20183;-74
2022/11/04 06:22:20;;;;;;;1.47;1.37;;;;;;;9.84;95.56;99278.25;5034308;28;20642;-77
2022/11/04 06:24:45;;;;;;;0.90;0.90;;;;;;;9.81;95.31;99278.88;5034318;28;20635;-78
2022/11/04 06:27:11;;;;;;;0.73;0.73;;;;;;;9.81;95.04;99286.28;5034301;28;20187;-75
2022/11/04 06:29:39;;;;;;;0.00;0.00;;;;;;;9.81;94.77;99286.28;5034164;28;20176;-75
2022/11/04 06:32:05;;;;;;;0.30;0.30;;;;;;;9.85;94.70;99295.41;5033963;28;20272;-74
2022/11/04 06:34:31;;;;;;;0.40;0.40;;;;;;;9.86;93.68;99294.28;5033777;28;20691;-77
2022/11/04 06:36:56;;;;;;;1.03;0.67;;;;;;;9.88;92.35;99305.66;5034158;28;20195;-76
2022/11/04 06:39:21;;;;;;;0.50;0.50;;;;;;;9.83;92.52;99322.19;5033637;28;20186;-75
2022/11/04 06:41:46;;;;;;;0.07;0.07;;;;;;;9.82;92.81;99324.13;5033758;28;20227;-74
2022/11/04 06:44:12;;;;;;;0.10;0.10;;;;;;;9.81;92.57;99308.09;5033328;28;20242;-75
2022/11/04 06:46:42;;;;;;;2.00;1.27;;;;;;;9.77;92.45;99288.88;5033891;28;20218;-74
2022/11/04 06:49:12;;;;;;;1.33;1.27;;;;;;;9.77;92.44;99299.00;5033887;28;20180;-73
2022/11/04 06:51:38;;;;;;;0.37;0.37;;;;;;;9.76;92.48;99309.09;5033965;28;20182;-76
2022/11/04 06:54:03;;;;;;;0.77;0.67;;;;;;;9.74;91.99;99308.66;5033269;28;20199;-75
2022/11/04 06:56:29;;;;;;;0.00;0.00;;;;;;;9.69;93.03;99319.78;5033629;28;20587;-75
2022/11/04 06:58:55;;;;;;;0.00;0.00;;;;;;;9.70;92.55;99309.66;5033296;28;20172;-76
2022/11/04 07:01:23;;;;;;;0.00;0.00;;;;;;;9.78;91.98;99319.69;5033519;28;20226;-76
2022/11/04 07:03:53;;;;;;;0.00;0.00;;;;;;;9.73;92.55;99325.34;5033206;28;20172;-76
2022/11/04 07:06:19;;;;;;;0.00;0.00;;;;;;;9.74;93.01;99321.50;5033318;28;20172;-75
2022/11/04 07:08:46;;;;;;;0.00;0.00;;;;;;;9.78;92.77;99319.69;5033321;28;20238;-77
2022/11/04 07:11:11;;;;;;;0.03;0.03;;;;;;;9.79;92.91;99329.47;5033374;28;20533;-81
2022/11/04 07:13:36;;;;;;;1.03;0.70;;;;;;;9.87;91.50;99331.34;5032958;28;20204;-78
2022/11/04 07:16:05;;;;;;;14.70;10.83;;;;;;;9.89;91.31;99328.25;5033217;28;20180;-82
2022/11/04 07:18:31;;;;;;;0.00;0.00;;;;;;;9.89;91.20;99320.09;5033191;28;20176;-77
2022/11/04 07:20:57;;;;;;;0.87;0.83;;;;;;;9.88;91.18;99326.66;5032999;28;20263;-80
2022/11/04 07:23:22;;;;;;;0.83;0.63;;;;;;;9.87;90.66;99325.06;5032659;28;20200;-76
2022/11/04 07:25:48;;;;;;;1.40;1.30;;;;;;;9.88;89.57;99322.00;5032889;28;20580;-81
2022/11/04 07:28:13;;;;;;;0.40;0.40;;;;;;;9.89;90.23;99320.09;5032930;28;20168;-82
2022/11/04 07:30:39;;;;;;;0.50;0.50;;;;;;;9.88;90.59;99335.66;5032803;28;20259;-78
2022/11/04 07:33:04;;;;;;;0.73;0.60;;;;;;;9.88;90.29;99337.59;5032801;28;20172;-81
2022/11/04 07:35:30;;;;;;;0.40;0.40;;;;;;;9.88;90.77;99349.28;5032910;28;20511;-79
2022/11/04 07:37:55;;;;;;;0.10;0.10;;;;;;;9.87;90.33;99342.25;5032693;28;20380;-81
2022/11/04 07:40:20;;;;;;;6.20;1.40;;;;;;;9.86;90.95;99345.31;5032763;28;20172;-82
2022/11/04 07:42:45;;;;;;;0.10;0.10;;;;;;;9.85;90.86;99355.41;5032400;28;20183;-79
2022/11/04 07:45:11;;;;;;;0.27;0.27;;;;;;;9.86;90.65;99353.50;5032767;28;20195;-81
2022/11/04 07:47:36;;;;;;;0.70;0.70;;;;;;;9.84;91.15;99365.53;5032474;28;20759;-81
2022/11/04 07:50:02;;;;;;;0.50;0.50;;;;;;;9.83;91.30;99357.66;5032568;28;20180;-79
2022/11/04 07:52:27;;;;;;;0.50;0.50;;;;;;;9.82;91.79;99356.06;5032644;28;20171;-81
2022/11/04 07:54:52;;;;;;;0.50;0.50;;;;;;;9.82;91.16;99362.31;5032496;28;20212;-82
2022/11/04 07:57:18;;;;;;;0.10;0.10;;;;;;;9.85;91.11;99360.88;5032519;28;20544;-80
2022/11/04 07:59:43;;;;;;;0.83;0.47;;;;;;;9.84;91.24;99359.28;5032324;28;20202;-80
2022/11/04 08:02:09;;;;;;;0.23;0.23;;;;;;;9.86;91.21;99357.00;5032233;28;20187;-82
2022/11/04 08:04:35;;;;;;;2.83;1.27;;;;;;;9.88;90.58;99362.94;5032029;28;20200;-79
2022/11/04 08:07:00;;;;;;;0.40;0.40;;;;;;;9.92;90.85;99372.03;5032258;28;20742;-80
2022/11/04 08:09:26;;;;;;;0.80;0.80;;;;;;;9.93;90.41;99360.00;5029239;28;20862;-79
2022/11/04 08:11:51;;;;;;;2.00;0.93;;;;;;;9.93;90.94;99364.66;5031839;28;20935;-79
2022/11/04 08:14:16;;;;;;;0.00;0.00;;;;;;;9.94;91.20;99372.50;5013764;28;20199;-78
2022/11/04 08:16:42;;;;;;;0.07;0.07;;;;;;;9.96;90.89;99377.63;5031848;28;20183;-78
2022/11/04 08:19:07;;;;;;;0.50;0.40;;;;;;;9.95;90.95;99382.28;5032176;28;20172;-77
2022/11/04 08:21:33;;;;;;;1.50;1.23;;;;;;;9.95;91.13;99392.41;5030560;28;20179;-80
2022/11/04 08:23:58;;;;;;;0.40;0.40;;;;;;;9.95;91.28;99379.56;5029490;28;20179;-80
2022/11/04 08:26:24;;;;;;;0.23;0.23;;;;;;;9.94;91.11;99377.97;5031518;28;20164;-79
2022/11/04 08:28:50;;;;;;;0.63;0.63;;;;;;;9.95;91.28;99379.56;5028726;28;20410;-81
2022/11/04 08:31:18;;;;;;;2.07;1.67;;;;;;;9.94;91.27;99377.97;5031515;28;20180;-80
2022/11/04 08:33:44;;;;;;;1.50;1.40;;;;;;;9.95;91.34;99387.75;5031108;28;20191;-81
2022/11/04 08:36:16;;;;;;;0.77;0.70;;;;;;;9.96;90.67;99372.97;5030682;28;20168;-82
2022/11/04 08:38:42;;;;;;;1.00;1.00;;;;;;;9.96;90.51;99370.22;5029454;28;20196;-82
2022/11/04 08:41:09;;;;;;;2.00;1.60;;;;;;;9.98;90.35;99381.63;5010640;28;20227;-80
2022/11/04 08:43:35;;;;;;;0.43;0.43;;;;;;;10.01;89.97;99371.97;5002655;28;20607;-80
2022/11/04 08:46:02;;;;;;;1.57;1.47;;;;;;;10.04;90.21;99371.31;5028820;28;20191;-78
2022/11/04 08:48:28;;;;;;;4.27;1.33;;;;;;;10.06;89.94;99386.22;5031616;28;20204;-77
2022/11/04 08:50:57;;;;;;;0.53;0.53;;;;;;;10.10;90.06;99384.41;5031715;28;20265;-78
2022/11/04 08:53:23;;;;;;;8.33;2.00;;;;;;;10.14;89.12;99400.94;5031564;28;20299;-78
2022/11/04 08:55:48;;;;;;;0.90;0.90;;;;;;;10.18;89.13;99418.22;5031660;28;20596;-79
2022/11/04 08:58:14;;;;;;;8.10;1.27;;;;;;;10.21;88.98;99427.69;5031430;28;20266;-79
2022/11/04 09:00:39;;;;;;;4.80;1.30;;;;;;;10.22;88.91;99416.44;5031345;28;20175;-78
2022/11/04 09:03:05;;;;;;;3.40;1.73;;;;;;;10.25;88.37;99423.16;5031324;28;20196;-80
2022/11/04 09:05:33;;;;;;;2.30;2.10;;;;;;;10.26;88.15;99419.31;5031376;28;20192;-80
2022/11/04 09:08:00;;;;;;;3.23;3.00;;;;;;;10.25;87.71;99421.25;5031441;28;20180;-79
2022/11/04 09:10:25;;;;;;;0.57;0.57;;;;;;;10.26;88.54;99425.56;5031273;28;20529;-79
2022/11/04 09:12:51;;;;;;;0.00;0.00;;;;;;;10.27;88.44;99413.53;5031204;28;20168;-80
2022/11/04 09:15:16;;;;;;;4.47;1.90;;;;;;;10.27;87.87;99415.44;5031328;28;20887;-80
2022/11/04 09:17:43;;;;;;;12.37;0.73;;;;;;;10.26;87.85;99420.09;5031381;28;20180;-78
2022/11/04 09:20:09;;;;;;;3.13;1.77;;;;;;;10.25;86.92;99425.91;5031202;28;20176;-79
2022/11/04 09:22:34;;;;;;;5.00;2.90;;;;;;;10.25;87.05;99423.97;5031170;28;20182;-80
2022/11/04 09:25:00;;;;;;;1.50;1.30;;;;;;;10.27;88.04;99415.44;5031209;28;20215;-78
2022/11/04 09:27:25;;;;;;;1.37;1.27;;;;;;;10.26;87.70;99409.19;5030993;28;20526;-80
2022/11/04 09:29:50;;;;;;;1.20;1.13;;;;;;;10.27;88.00;99404.53;5031082;28;20271;-80
2022/11/04 09:32:16;;;;;;;1.07;1.07;;;;;;;10.26;88.35;99405.66;5031120;28;20172;-79
2022/11/04 09:34:41;;;;;;;0.83;0.83;;;;;;;10.27;88.53;99404.53;5030763;28;20288;-79
2022/11/04 09:37:06;;;;;;;2.93;1.80;;;;;;;10.26;88.19;99411.13;5031097;28;20234;-80
2022/11/04 09:39:31;;;;;;;6.40;2.87;;;;;;;10.28;88.27;99408.88;5030628;28;20246;-79
2022/11/04 09:42:12;;;;;;;3.20;2.33;;;;;;;10.29;88.80;99402.28;5031058;28;20535;-79
2022/11/04 09:44:53;;;;;;;9.63;3.03;;;;;;;10.29;89.17;99405.81;5030677;28;20186;-79
2022/11/04 09:47:21;;;;;;;1.43;1.33;;;;;;;10.30;89.35;99393.75;5030626;28;20198;-80
2022/11/04 09:49:51;;;;;;;0.60;0.60;;;;;;;10.31;89.19;99381.69;5030502;28;20218;-80
2022/11/04 09:52:30;;;;;;;2.10;2.00;;;;;;;10.32;88.61;99387.94;5030886;28;20199;-81
2022/11/04 09:55:20;;;;;;;2.50;2.20;;;;;;;10.34;88.17;99375.56;5030663;28;20290;-80
2022/11/04 09:57:54;;;;;;;1.10;1.00;;;;;;;10.39;88.67;99367.16;5030771;28;20172;-78
2022/11/04 10:00:19;;;;;;;3.03;2.70;;;;;;;10.42;88.65;99373.91;5030636;28;20176;-82
2022/11/04 10:02:56;;;;;;;2.57;2.23;;;;;;;10.48;88.88;99379.94;5030477;28;20176;-81
2022/11/04 10:05:40;;;;;;;0.60;0.60;;;;;;;10.51;88.52;99380.03;5030688;28;20168;-85
2022/11/04 10:08:37;;;;;;;1.90;1.33;;;;;;;10.56;88.31;99387.22;5030670;28;20167;-83
2022/11/04 10:11:45;;;;;;;1.27;0.90;;;;;;;10.58;87.90;99393.97;5005075;28;20641;-81
2022/11/04 10:14:28;;;;;;;1.17;0.53;;;;;;;10.63;86.99;99393.75;5030436;28;20650;-81
2022/11/04 10:17:31;;;;;;;6.33;2.27;;;;;;;10.65;84.52;99399.66;5029311;28;20179;-80
2022/11/04 10:20:19;;;;;;;2.80;2.40;;;;;;;10.64;84.69;99405.47;5012990;28;20666;-82
2022/11/04 10:23:15;;;;;;;0.73;0.73;;;;;;;10.66;84.50;99417.66;5012383;28;20176;-80
2022/11/04 10:25:47;;;;;;;2.60;2.00;;;;;;;10.73;85.77;99426.09;5030322;28;20191;-81
2022/11/04 10:28:16;;;;;;;2.13;1.83;;;;;;;10.73;84.86;99445.22;5030391;28;20178;-80
2022/11/04 10:30:45;;;;;;;5.70;3.03;;;;;;;10.71;84.81;99452.16;5030572;28;20497;-79
2022/11/04 10:33:27;;;;;;;6.07;2.77;;;;;;;10.66;85.02;99455.88;5029668;28;20184;-79
2022/11/04 10:35:57;;;;;;;0.40;0.40;;;;;;;10.66;85.43;99458.63;5030395;28;20171;-81
2022/11/04 10:38:43;;;;;;;5.30;1.90;;;;;;;10.67;85.76;99465.69;5012474;28;20202;-83
2022/11/04 10:41:23;;;;;;;0.60;0.37;;;;;;;10.73;86.22;99475.28;5030300;28;20183;-84
2022/11/04 10:44:02;;;;;;;2.93;2.50;;;;;;;10.71;85.44;99474.81;5030094;28;20172;-82
2022/11/04 10:46:43;;;;;;;1.60;1.50;;;;;;;10.80;85.40;99474.72;5012620;28;20478;-82
2022/11/04 10:49:24;;;;;;;5.10;2.23;;;;;;;10.79;85.65;99478.59;5029951;28;20202;-82
2022/11/04 10:51:49;;;;;;;1.73;1.63;;;;;;;10.75;84.58;99476.88;5030201;28;20172;-82
2022/11/04 10:54:15;;;;;;;5.07;3.13;;;;;;;10.74;84.73;99473.34;5030173;28;20208;-80
2022/11/04 10:56:44;;;;;;;3.10;1.93;;;;;;;10.72;83.34;99465.50;5030255;28;20509;-82
2022/11/04 10:59:22;;;;;;;1.67;1.57;;;;;;;10.75;83.45;99465.94;5013293;28;20172;-81
2022/11/04 11:01:50;;;;;;;0.80;0.80;;;;;;;10.87;82.77;99461.31;5033878;28;20180;-81
2022/11/04 11:04:32;;;;;;;1.67;1.57;;;;;;;11.01;82.55;99466.47;5034105;28;20180;-80
2022/11/04 11:06:59;;;;;;;11.10;1.37;;;;;;;11.07;81.72;99453.38;5033869;28;20617;-80
2022/11/04 11:09:28;;;;;;;12.83;2.50;;;;;;;11.12;81.76;99451.22;5015778;28;20175;-81
2022/11/04 11:12:28;;;;;;;1.80;1.53;;;;;;;11.16;81.55;99441.22;5033735;28;20229;-80
2022/11/04 11:14:54;;;;;;;1.30;1.10;;;;;;;11.25;81.01;99450.09;5033397;28;20299;-81
2022/11/04 11:17:41;;;;;;;2.00;1.10;;;;;;;11.29;81.17;99444.78;5033495;28;20255;-81
2022/11/04 11:20:13;;;;;;;1.10;0.97;;;;;;;11.29;80.39;99450.25;5030714;28;20275;-81
2022/11/04 11:22:42;;;;;;;2.43;1.50;;;;;;;11.35;80.65;99445.34;5031756;28;20176;-78
2022/11/04 11:25:13;;;;;;;0.80;0.80;;;;;;;11.36;81.11;99455.94;5033175;28;20222;-80
2022/11/04 11:27:44;;;;;;;0.93;0.93;;;;;;;11.40;79.54;99461.50;5033162;28;20180;-82
2022/11/04 11:30:20;;;;;;;5.03;1.70;;;;;;;11.27;78.38;99458.75;5033125;28;20222;-79
2022/11/04 11:32:52;;;;;;;0.67;0.67;;;;;;;11.18;78.63;99454.56;5033350;28;20201;-81
2022/11/04 11:35:20;;;;;;;1.03;0.60;;;;;;;11.18;78.44;99458.09;5033224;28;20207;-80
2022/11/04 11:37:47;;;;;;;0.63;0.63;;;;;;;11.25;79.01;99460.25;5032990;28;20180;-81
2022/11/04 11:40:31;;;;;;;0.70;0.67;;;;;;;11.38;80.78;99464.59;5033210;28;20259;-79
2022/11/04 11:42:59;;;;;;;1.27;0.90;;;;;;;11.44;80.44;99474.19;5033024;28;20246;-81
2022/11/04 11:45:26;;;;;;;2.37;1.77;;;;;;;11.36;79.38;99471.53;5032849;28;20196;-82
2022/11/04 11:47:54;;;;;;;2.83;2.43;;;;;;;11.40;79.88;99459.56;5033043;28;20635;-81
2022/11/04 11:50:24;;;;;;;3.43;2.27;;;;;;;11.41;79.14;99452.97;5032882;28;20195;-81
2022/11/04 11:52:51;;;;;;;2.67;2.47;;;;;;;11.51;78.70;99457.19;5032753;28;20663;-80
2022/11/04 11:55:31;;;;;;;1.50;1.40;;;;;;;11.51;78.66;99449.78;5032706;28;20246;-81
2022/11/04 11:58:18;;;;;;;1.27;1.23;;;;;;;11.50;77.79;99450.94;5032732;28;20184;-79
2022/11/04 12:01:03;;;;;;;6.23;1.77;;;;;;;11.54;78.44;99448.31;5032767;28;20179;-81
2022/11/04 12:03:36;;;;;;;4.83;1.27;;;;;;;11.57;77.74;99450.34;5032513;28;20266;-81
2022/11/04 12:06:26;;;;;;;2.20;1.93;;;;;;;11.66;78.81;99456.50;5032618;28;20535;-82
2022/11/04 12:09:07;;;;;;;1.93;1.83;;;;;;;11.73;78.46;99451.28;5032530;28;20160;-81
2022/11/04 12:11:58;;;;;;;3.47;1.73;;;;;;;11.68;78.26;99445.22;5014669;28;20179;-80
2022/11/04 12:14:30;;;;;;;1.93;1.83;;;;;;;11.71;78.88;99453.53;5032222;28;20200;-80
2022/11/04 12:17:23;;;;;;;1.20;1.20;;;;;;;11.78;79.46;99456.50;5032369;28;20662;-80
2022/11/04 12:19:51;;;;;;;1.20;1.20;;;;;;;11.82;79.45;99462.91;5032296;28;20874;-81
2022/11/04 12:22:35;;;;;;;0.10;0.10;;;;;;;11.81;79.71;99460.53;5032212;28;20184;-81
2022/11/04 12:25:36;;;;;;;0.43;0.43;;;;;;;11.76;79.40;99458.78;5032302;28;20176;-81
2022/11/04 12:28:24;;;;;;;0.60;0.60;;;;;;;11.74;79.97;99458.34;4999583;28;20674;-82
2022/11/04 12:31:24;;;;;;;0.73;0.73;;;;;;;11.59;79.83;99453.56;5032122;28;20626;-81